createdAt,value
2017-06-11T00:00:05.348Z,1017.53
2017-06-11T00:00:46.235Z,1017.51
2017-06-11T00:01:27.134Z,1017.53
2017-06-11T00:02:08.033Z,1017.52
2017-06-11T00:02:48.926Z,1017.52
2017-06-11T00:03:29.816Z,1017.5
2017-06-11T00:04:10.736Z,1017.51
2017-06-11T00:04:51.634Z,1017.55
2017-06-11T00:05:32.530Z,1017.53
2017-06-11T00:06:13.435Z,1017.55
2017-06-11T00:06:54.349Z,1017.53
2017-06-11T00:07:35.252Z,1017.51
2017-06-11T00:08:16.159Z,1017.57
2017-06-11T00:08:57.048Z,1017.53
2017-06-11T00:09:37.950Z,1017.52
2017-06-11T00:10:18.856Z,1017.52
2017-06-11T00:10:59.748Z,1017.52
2017-06-11T00:11:40.649Z,1017.52
2017-06-11T00:12:21.562Z,1017.46
2017-06-11T00:13:02.480Z,1017.48
2017-06-11T00:13:43.385Z,1017.48
2017-06-11T00:14:24.295Z,1017.48
2017-06-11T00:15:05.194Z,1017.46
2017-06-11T00:15:46.080Z,1017.47
2017-06-11T00:16:26.977Z,1017.46
2017-06-11T00:17:07.878Z,1017.44
2017-06-11T00:17:48.762Z,1017.46
2017-06-11T00:18:29.667Z,1017.41
2017-06-11T00:19:10.563Z,1017.41
2017-06-11T00:19:51.454Z,1017.4
2017-06-11T00:20:32.351Z,1017.38
2017-06-11T00:21:13.249Z,1017.39
2017-06-11T00:21:54.159Z,1017.41
2017-06-11T00:22:35.057Z,1017.38
2017-06-11T00:23:15.963Z,1017.41
2017-06-11T00:23:56.862Z,1017.38
2017-06-11T00:24:37.751Z,1017.41
2017-06-11T00:25:18.644Z,1017.39
2017-06-11T00:25:59.541Z,1017.36
2017-06-11T00:26:40.446Z,1017.36
2017-06-11T00:27:21.343Z,1017.37
2017-06-11T00:28:02.255Z,1017.36
2017-06-11T00:28:43.155Z,1017.39
2017-06-11T00:29:24.086Z,1017.36
2017-06-11T00:30:04.930Z,1017.37
2017-06-11T00:30:45.832Z,1017.38
2017-06-11T00:31:26.724Z,1017.36
2017-06-11T00:32:07.630Z,1017.38
2017-06-11T00:32:48.526Z,1017.35
2017-06-11T00:33:29.404Z,1017.39
2017-06-11T00:34:10.308Z,1017.39
2017-06-11T00:34:51.200Z,1017.37
2017-06-11T00:35:32.084Z,1017.38
2017-06-11T00:36:12.986Z,1017.38
2017-06-11T00:36:53.879Z,1017.35
2017-06-11T00:37:34.776Z,1017.38
2017-06-11T00:38:15.681Z,1017.36
2017-06-11T00:38:56.572Z,1017.39
2017-06-11T00:39:37.479Z,1017.39
2017-06-11T00:40:18.385Z,1017.39
2017-06-11T00:40:59.288Z,1017.4
2017-06-11T00:41:40.192Z,1017.35
2017-06-11T00:42:21.069Z,1017.4
2017-06-11T00:43:02.003Z,1017.37
2017-06-11T00:43:42.877Z,1017.39
2017-06-11T00:44:23.774Z,1017.37
2017-06-11T00:45:04.682Z,1017.42
2017-06-11T00:45:45.571Z,1017.38
2017-06-11T00:46:26.479Z,1017.38
2017-06-11T00:47:07.359Z,1017.36
2017-06-11T00:47:48.257Z,1017.35
2017-06-11T00:48:29.156Z,1017.35
2017-06-11T00:49:10.046Z,1017.36
2017-06-11T00:49:50.976Z,1017.34
2017-06-11T00:50:31.837Z,1017.34
2017-06-11T00:51:12.731Z,1017.37
2017-06-11T00:51:53.642Z,1017.36
2017-06-11T00:52:34.531Z,1017.33
2017-06-11T00:53:15.421Z,1017.31
2017-06-11T00:53:56.387Z,1017.32
2017-06-11T00:54:37.218Z,1017.36
2017-06-11T00:55:18.129Z,1017.3
2017-06-11T00:55:59.026Z,1017.32
2017-06-11T00:56:39.893Z,1017.3
2017-06-11T00:57:20.792Z,1017.33
2017-06-11T00:58:01.698Z,1017.31
2017-06-11T00:58:42.577Z,1017.33
2017-06-11T00:59:23.482Z,1017.3
2017-06-11T01:00:04.369Z,1017.32
2017-06-11T01:00:45.259Z,1017.27
2017-06-11T01:01:26.173Z,1017.28
2017-06-11T01:02:07.057Z,1017.31
2017-06-11T01:02:47.959Z,1017.28
2017-06-11T01:03:28.852Z,1017.29
2017-06-11T01:04:09.738Z,1017.29
2017-06-11T01:04:50.638Z,1017.29
2017-06-11T01:05:31.536Z,1017.3
2017-06-11T01:06:12.425Z,1017.33
2017-06-11T01:06:53.331Z,1017.28
2017-06-11T01:07:34.222Z,1017.28
2017-06-11T01:08:15.116Z,1017.28
2017-06-11T01:08:56.007Z,1017.29
2017-06-11T01:09:36.906Z,1017.32
2017-06-11T01:10:17.795Z,1017.27
2017-06-11T01:10:58.705Z,1017.31
2017-06-11T01:11:39.594Z,1017.24
2017-06-11T01:12:20.506Z,1017.25
2017-06-11T01:13:01.397Z,1017.26
2017-06-11T01:13:42.308Z,1017.24
2017-06-11T01:14:23.193Z,1017.22
2017-06-11T01:15:04.084Z,1017.21
2017-06-11T01:15:44.988Z,1017.2
2017-06-11T01:16:25.897Z,1017.19
2017-06-11T01:17:06.759Z,1017.19
2017-06-11T01:17:47.670Z,1017.17
2017-06-11T01:18:28.556Z,1017.21
2017-06-11T01:19:09.430Z,1017.21
2017-06-11T01:19:50.339Z,1017.22
2017-06-11T01:20:31.222Z,1017.23
2017-06-11T01:21:12.116Z,1017.21
2017-06-11T01:21:52.997Z,1017.26
2017-06-11T01:22:33.902Z,1017.23
2017-06-11T01:23:14.789Z,1017.2
2017-06-11T01:23:55.691Z,1017.23
2017-06-11T01:24:36.579Z,1017.25
2017-06-11T01:25:17.463Z,1017.2
2017-06-11T01:25:58.367Z,1017.22
2017-06-11T01:26:39.264Z,1017.25
2017-06-11T01:27:20.141Z,1017.23
2017-06-11T01:28:01.030Z,1017.2
2017-06-11T01:28:41.934Z,1017.19
2017-06-11T01:29:22.828Z,1017.18
2017-06-11T01:30:03.743Z,1017.19
2017-06-11T01:30:44.625Z,1017.19
2017-06-11T01:31:25.493Z,1017.16
2017-06-11T01:32:06.403Z,1017.17
2017-06-11T01:32:47.302Z,1017.15
2017-06-11T01:33:28.199Z,1017.14
2017-06-11T01:34:09.106Z,1017.14
2017-06-11T01:34:49.977Z,1017.15
2017-06-11T01:35:30.889Z,1017.12
2017-06-11T01:36:11.783Z,1017.09
2017-06-11T01:38:05.389Z,1017.1
2017-06-11T01:38:46.289Z,1017.1
2017-06-11T01:39:27.176Z,1017.1
2017-06-11T01:40:08.085Z,1017.09
2017-06-11T01:40:48.978Z,1017.09
2017-06-11T01:41:29.862Z,1017.06
2017-06-11T01:42:10.764Z,1017.06
2017-06-11T01:42:51.654Z,1017.05
2017-06-11T01:43:32.541Z,1017.05
2017-06-11T01:44:13.449Z,1017.08
2017-06-11T01:44:54.345Z,1017.09
2017-06-11T01:45:35.244Z,1017.11
2017-06-11T01:46:16.137Z,1017.07
2017-06-11T01:46:57.019Z,1017.1
2017-06-11T01:47:37.886Z,1017.11
2017-06-11T01:48:18.787Z,1017.13
2017-06-11T01:48:59.678Z,1017.12
2017-06-11T01:49:40.551Z,1017.15
2017-06-11T01:50:21.430Z,1017.17
2017-06-11T01:51:02.323Z,1017.15
2017-06-11T01:51:43.228Z,1017.17
2017-06-11T01:52:24.109Z,1017.15
2017-06-11T01:53:05.009Z,1017.12
2017-06-11T01:53:45.900Z,1017.14
2017-06-11T01:54:26.770Z,1017.1
2017-06-11T01:55:07.686Z,1017.1
2017-06-11T01:55:48.577Z,1017.12
2017-06-11T01:56:29.459Z,1017.07
2017-06-11T01:57:10.368Z,1017.13
2017-06-11T01:57:51.293Z,1017.14
2017-06-11T01:58:32.198Z,1017.16
2017-06-11T01:59:13.074Z,1017.13
2017-06-11T01:59:53.970Z,1017.12
2017-06-11T02:00:34.873Z,1017.11
2017-06-11T02:01:15.745Z,1017.09
2017-06-11T02:01:56.611Z,1017.14
2017-06-11T02:02:37.502Z,1017.14
2017-06-11T02:03:18.421Z,1017.15
2017-06-11T02:03:59.316Z,1017.12
2017-06-11T02:04:40.242Z,1017.13
2017-06-11T02:05:21.097Z,1017.12
2017-06-11T02:06:01.975Z,1017.15
2017-06-11T02:06:42.888Z,1017.08
2017-06-11T02:07:23.769Z,1017.14
2017-06-11T02:08:04.641Z,1017.13
2017-06-11T02:08:45.564Z,1017.12
2017-06-11T02:09:26.444Z,1017.12
2017-06-11T02:10:07.329Z,1017.14
2017-06-11T02:10:48.273Z,1017.1
2017-06-11T02:11:29.138Z,1017.15
2017-06-11T02:12:10.023Z,1017.09
2017-06-11T02:12:50.946Z,1017.1
2017-06-11T02:13:31.836Z,1017.1
2017-06-11T02:14:12.735Z,1017.06
2017-06-11T02:14:53.615Z,1017.1
2017-06-11T02:15:34.499Z,1017.09
2017-06-11T02:16:15.390Z,1017.09
2017-06-11T02:16:56.301Z,1017.1
2017-06-11T02:17:37.177Z,1017.11
2017-06-11T02:18:18.095Z,1017.12
2017-06-11T02:18:58.979Z,1017.13
2017-06-11T02:19:39.864Z,1017.12
2017-06-11T02:20:20.773Z,1017.13
2017-06-11T02:21:01.655Z,1017.13
2017-06-11T02:21:42.529Z,1017.11
2017-06-11T02:22:23.426Z,1017.11
2017-06-11T02:23:04.319Z,1017.12
2017-06-11T02:23:45.189Z,1017.07
2017-06-11T02:24:26.090Z,1017.1
2017-06-11T02:25:06.986Z,1017.1
2017-06-11T02:25:47.863Z,1017.08
2017-06-11T02:26:28.805Z,1017.06
2017-06-11T02:27:09.690Z,1017.08
2017-06-11T02:27:50.579Z,1017.09
2017-06-11T02:28:31.475Z,1017.09
2017-06-11T02:29:12.360Z,1017.08
2017-06-11T02:29:53.244Z,1017.1
2017-06-11T02:30:34.157Z,1017.05
2017-06-11T02:31:15.028Z,1017.09
2017-06-11T02:31:55.922Z,1017.07
2017-06-11T02:32:36.832Z,1017.05
2017-06-11T02:33:17.707Z,1017.03
2017-06-11T02:33:58.578Z,1017.06
2017-06-11T02:34:39.497Z,1017.04
2017-06-11T02:35:20.388Z,1017.07
2017-06-11T02:36:01.263Z,1017.02
2017-06-11T02:36:42.164Z,1017.06
2017-06-11T02:37:23.060Z,1017.03
2017-06-11T02:38:03.953Z,1017.05
2017-06-11T02:38:44.848Z,1017.03
2017-06-11T02:39:25.741Z,1017.01
2017-06-11T02:40:06.612Z,1017.01
2017-06-11T02:40:47.518Z,1017.04
2017-06-11T02:41:28.405Z,1017.04
2017-06-11T02:42:09.282Z,1017.07
2017-06-11T02:42:50.169Z,1017.06
2017-06-11T02:43:31.075Z,1017.1
2017-06-11T02:44:11.958Z,1017.04
2017-06-11T02:44:52.851Z,1017.06
2017-06-11T02:45:33.772Z,1017.03
2017-06-11T02:46:14.665Z,1017.06
2017-06-11T02:46:55.566Z,1017.07
2017-06-11T02:47:36.453Z,1017.08
2017-06-11T02:48:17.349Z,1017.08
2017-06-11T02:48:58.248Z,1017.05
2017-06-11T02:49:39.141Z,1017.07
2017-06-11T02:50:20.031Z,1017.08
2017-06-11T02:51:00.935Z,1017.12
2017-06-11T02:51:41.820Z,1017.09
2017-06-11T02:52:22.727Z,1017.13
2017-06-11T02:53:03.624Z,1017.08
2017-06-11T02:53:44.528Z,1017.1
2017-06-11T02:54:25.428Z,1017.1
2017-06-11T02:55:06.316Z,1017.1
2017-06-11T02:55:47.213Z,1017.1
2017-06-11T02:56:28.104Z,1017.11
2017-06-11T02:57:08.993Z,1017.11
2017-06-11T02:57:49.899Z,1017.06
2017-06-11T02:58:30.787Z,1017.08
2017-06-11T02:59:11.669Z,1017.08
2017-06-11T02:59:52.564Z,1017.11
2017-06-11T03:00:33.454Z,1017.08
2017-06-11T03:01:14.345Z,1017.08
2017-06-11T03:01:55.247Z,1017.12
2017-06-11T03:02:36.142Z,1017.08
2017-06-11T03:03:17.025Z,1017.1
2017-06-11T03:03:57.916Z,1017.07
2017-06-11T03:04:38.796Z,1017.1
2017-06-11T03:05:19.683Z,1017.11
2017-06-11T03:06:00.596Z,1017.11
2017-06-11T03:06:41.487Z,1017.13
2017-06-11T03:07:22.364Z,1017.11
2017-06-11T03:08:03.268Z,1017.15
2017-06-11T03:08:44.162Z,1017.15
2017-06-11T03:09:25.050Z,1017.14
2017-06-11T03:10:05.948Z,1017.16
2017-06-11T03:10:46.826Z,1017.14
2017-06-11T03:11:27.712Z,1017.13
2017-06-11T03:12:08.601Z,1017.13
2017-06-11T03:12:49.503Z,1017.14
2017-06-11T03:13:30.379Z,1017.14
2017-06-11T03:14:11.250Z,1017.12
2017-06-11T03:14:52.154Z,1017.14
2017-06-11T03:15:33.054Z,1017.14
2017-06-11T03:16:13.927Z,1017.15
2017-06-11T03:16:54.830Z,1017.17
2017-06-11T03:17:35.716Z,1017.13
2017-06-11T03:18:16.621Z,1017.16
2017-06-11T03:18:57.523Z,1017.15
2017-06-11T03:19:38.405Z,1017.14
2017-06-11T03:20:19.269Z,1017.09
2017-06-11T03:21:00.172Z,1017.12
2017-06-11T03:21:41.072Z,1017.1
2017-06-11T03:22:21.968Z,1017.08
2017-06-11T03:23:02.878Z,1017.1
2017-06-11T03:23:43.752Z,1017.11
2017-06-11T03:24:24.633Z,1017.09
2017-06-11T03:25:05.540Z,1017.12
2017-06-11T03:25:46.449Z,1017.1
2017-06-11T03:26:27.354Z,1017.09
2017-06-11T03:27:08.238Z,1017.07
2017-06-11T03:27:49.130Z,1017.03
2017-06-11T03:28:30.014Z,1017.08
2017-06-11T03:29:10.909Z,1017.05
2017-06-11T03:29:51.797Z,1017.05
2017-06-11T03:30:32.718Z,1017.04
2017-06-11T03:31:13.599Z,1017.07
2017-06-11T03:31:54.479Z,1017.04
2017-06-11T03:32:35.381Z,1017.05
2017-06-11T03:33:16.284Z,1017.11
2017-06-11T03:33:57.190Z,1017.06
2017-06-11T03:34:38.083Z,1017.05
2017-06-11T03:35:18.972Z,1017.04
2017-06-11T03:35:59.878Z,1017.03
2017-06-11T03:36:40.765Z,1017.04
2017-06-11T03:37:21.665Z,1017.02
2017-06-11T03:38:02.568Z,1017.05
2017-06-11T03:38:43.452Z,1017.08
2017-06-11T03:39:24.345Z,1017.06
2017-06-11T03:40:05.247Z,1017.05
2017-06-11T03:40:46.131Z,1017.04
2017-06-11T03:41:27.047Z,1017.02
2017-06-11T03:42:07.942Z,1017.04
2017-06-11T03:42:48.843Z,1017.02
2017-06-11T03:43:29.740Z,1017.03
2017-06-11T03:44:10.634Z,1017.01
2017-06-11T03:44:51.537Z,1016.98
2017-06-11T03:45:32.422Z,1016.97
2017-06-11T03:46:13.312Z,1017.02
2017-06-11T03:46:54.214Z,1017.02
2017-06-11T03:47:35.106Z,1017.02
2017-06-11T03:48:15.984Z,1017.04
2017-06-11T03:48:56.886Z,1017.06
2017-06-11T03:49:37.775Z,1017.08
2017-06-11T03:50:18.691Z,1017.04
2017-06-11T03:50:59.567Z,1017.11
2017-06-11T03:51:40.454Z,1017.11
2017-06-11T03:52:21.337Z,1017.08
2017-06-11T03:53:02.230Z,1017.08
2017-06-11T03:53:43.139Z,1017.08
2017-06-11T03:54:24.020Z,1017.08
2017-06-11T03:55:04.906Z,1017.07
2017-06-11T03:55:45.837Z,1017.02
2017-06-11T03:56:26.719Z,1017.05
2017-06-11T03:57:07.624Z,1017.09
2017-06-11T03:57:48.515Z,1017.09
2017-06-11T03:58:29.415Z,1017.11
2017-06-11T03:59:10.308Z,1017.13
2017-06-11T03:59:51.196Z,1017.16
2017-06-11T04:00:32.100Z,1017.13
2017-06-11T04:01:13.001Z,1017.13
2017-06-11T04:01:53.896Z,1017.16
2017-06-11T04:02:34.789Z,1017.16
2017-06-11T04:03:15.669Z,1017.18
2017-06-11T04:03:56.566Z,1017.18
2017-06-11T04:04:37.484Z,1017.23
2017-06-11T04:05:18.379Z,1017.25
2017-06-11T04:05:59.265Z,1017.24
2017-06-11T04:06:40.157Z,1017.21
2017-06-11T04:07:21.049Z,1017.19
2017-06-11T04:08:01.961Z,1017.17
2017-06-11T04:08:42.838Z,1017.16
2017-06-11T04:09:23.723Z,1017.15
2017-06-11T04:10:04.618Z,1017.17
2017-06-11T04:10:45.510Z,1017.15
2017-06-11T04:11:26.407Z,1017.12
2017-06-11T04:12:07.292Z,1017.17
2017-06-11T04:12:48.189Z,1017.13
2017-06-11T04:13:29.082Z,1017.15
2017-06-11T04:14:09.969Z,1017.11
2017-06-11T04:14:50.857Z,1017.13
2017-06-11T04:15:31.745Z,1017.13
2017-06-11T04:16:12.680Z,1017.11
2017-06-11T04:16:53.572Z,1017.15
2017-06-11T04:17:34.472Z,1017.12
2017-06-11T04:18:15.358Z,1017.12
2017-06-11T04:18:56.247Z,1017.13
2017-06-11T04:19:37.153Z,1017.12
2017-06-11T04:20:18.033Z,1017.13
2017-06-11T04:20:58.928Z,1017.12
2017-06-11T04:21:39.822Z,1017.12
2017-06-11T04:22:20.711Z,1017.1
2017-06-11T04:23:01.603Z,1017.12
2017-06-11T04:23:42.502Z,1017.14
2017-06-11T04:24:23.387Z,1017.14
2017-06-11T04:25:04.277Z,1017.13
2017-06-11T04:25:45.179Z,1017.13
2017-06-11T04:26:26.071Z,1017.16
2017-06-11T04:27:06.974Z,1017.19
2017-06-11T04:27:47.865Z,1017.17
2017-06-11T04:28:28.766Z,1017.15
2017-06-11T04:29:09.660Z,1017.14
2017-06-11T04:29:50.553Z,1017.11
2017-06-11T04:30:31.446Z,1017.14
2017-06-11T04:31:12.356Z,1017.15
2017-06-11T04:31:53.241Z,1017.11
2017-06-11T04:32:34.143Z,1017.15
2017-06-11T04:33:15.030Z,1017.14
2017-06-11T04:33:55.911Z,1017.12
2017-06-11T04:34:36.807Z,1017.12
2017-06-11T04:35:17.684Z,1017.16
2017-06-11T04:35:58.580Z,1017.1
2017-06-11T04:36:39.477Z,1017.13
2017-06-11T04:37:20.369Z,1017.16
2017-06-11T04:38:01.260Z,1017.14
2017-06-11T04:38:42.159Z,1017.13
2017-06-11T04:39:23.045Z,1017.15
2017-06-11T04:40:03.933Z,1017.12
2017-06-11T04:40:44.824Z,1017.12
2017-06-11T04:41:25.736Z,1017.13
2017-06-11T04:42:06.624Z,1017.15
2017-06-11T04:42:47.531Z,1017.13
2017-06-11T04:43:28.417Z,1017.18
2017-06-11T04:44:09.322Z,1017.18
2017-06-11T04:44:50.226Z,1017.15
2017-06-11T04:45:31.103Z,1017.17
2017-06-11T04:46:11.999Z,1017.16
2017-06-11T04:46:52.888Z,1017.16
2017-06-11T04:47:33.765Z,1017.15
2017-06-11T04:48:14.683Z,1017.15
2017-06-11T04:48:55.577Z,1017.21
2017-06-11T04:49:36.461Z,1017.16
2017-06-11T04:50:17.353Z,1017.18
2017-06-11T04:50:58.255Z,1017.16
2017-06-11T04:51:39.147Z,1017.17
2017-06-11T04:52:20.051Z,1017.16
2017-06-11T04:53:00.954Z,1017.18
2017-06-11T04:53:41.845Z,1017.19
2017-06-11T04:54:22.740Z,1017.17
2017-06-11T04:55:03.633Z,1017.19
2017-06-11T04:55:44.543Z,1017.17
2017-06-11T04:56:25.425Z,1017.22
2017-06-11T04:57:06.319Z,1017.2
2017-06-11T04:57:47.217Z,1017.19
2017-06-11T04:58:28.126Z,1017.2
2017-06-11T04:59:09.007Z,1017.15
2017-06-11T04:59:49.906Z,1017.19
2017-06-11T05:01:58.941Z,1017.15
2017-06-11T05:02:39.825Z,1017.16
2017-06-11T05:03:20.717Z,1017.16
2017-06-11T05:04:01.620Z,1017.2
2017-06-11T05:04:42.506Z,1017.14
2017-06-11T05:05:23.411Z,1017.14
2017-06-11T05:06:04.321Z,1017.13
2017-06-11T05:06:45.214Z,1017.12
2017-06-11T05:07:26.098Z,1017.12
2017-06-11T05:08:06.979Z,1017.11
2017-06-11T05:08:47.878Z,1017.12
2017-06-11T05:09:28.768Z,1017.1
2017-06-11T05:10:09.653Z,1017.08
2017-06-11T05:10:50.559Z,1017.1
2017-06-11T05:11:31.444Z,1017.1
2017-06-11T05:12:12.339Z,1017.11
2017-06-11T05:12:53.226Z,1017.13
2017-06-11T05:13:34.119Z,1017.08
2017-06-11T05:14:14.999Z,1017.09
2017-06-11T05:14:55.899Z,1017.1
2017-06-11T05:15:36.792Z,1017.08
2017-06-11T05:16:17.682Z,1017.09
2017-06-11T05:16:58.572Z,1017.08
2017-06-11T05:17:39.457Z,1017.09
2017-06-11T05:18:20.353Z,1017.11
2017-06-11T05:19:01.258Z,1017.07
2017-06-11T05:19:42.143Z,1017.08
2017-06-11T05:20:23.020Z,1017.12
2017-06-11T05:21:03.913Z,1017.1
2017-06-11T05:21:44.820Z,1017.08
2017-06-11T05:22:25.708Z,1017.09
2017-06-11T05:23:06.600Z,1017.08
2017-06-11T05:23:47.494Z,1017.08
2017-06-11T05:24:28.388Z,1017.08
2017-06-11T05:25:09.265Z,1017.11
2017-06-11T05:25:50.166Z,1017.11
2017-06-11T05:26:31.058Z,1017.15
2017-06-11T05:27:11.960Z,1017.1
2017-06-11T05:27:52.854Z,1017.12
2017-06-11T05:28:33.758Z,1017.08
2017-06-11T05:29:14.664Z,1017.08
2017-06-11T05:29:55.542Z,1017.07
2017-06-11T05:30:36.416Z,1017.1
2017-06-11T05:31:17.321Z,1017.1
2017-06-11T05:31:58.213Z,1017.12
2017-06-11T05:32:39.125Z,1017.1
2017-06-11T05:33:20.028Z,1017.08
2017-06-11T05:34:00.904Z,1017.05
2017-06-11T05:34:41.790Z,1017.07
2017-06-11T05:35:22.691Z,1017.02
2017-06-11T05:36:03.568Z,1016.99
2017-06-11T05:36:44.464Z,1017.01
2017-06-11T05:37:25.367Z,1017.03
2017-06-11T05:38:06.262Z,1017.02
2017-06-11T05:38:47.168Z,1017.01
2017-06-11T05:39:28.073Z,1017.01
2017-06-11T05:40:08.987Z,1017.02
2017-06-11T05:40:49.893Z,1017.04
2017-06-11T05:41:30.774Z,1016.99
2017-06-11T05:42:11.661Z,1017.05
2017-06-11T05:42:52.546Z,1017.03
2017-06-11T05:43:35.145Z,1017.02
2017-06-11T05:44:16.029Z,1017
2017-06-11T05:44:56.929Z,1017.06
2017-06-11T05:45:37.816Z,1017.03
2017-06-11T05:46:18.695Z,1017.01
2017-06-11T05:46:59.571Z,1017.01
2017-06-11T05:47:40.474Z,1016.96
2017-06-11T05:48:21.353Z,1016.97
2017-06-11T05:49:02.242Z,1016.95
2017-06-11T05:49:43.148Z,1016.95
2017-06-11T05:50:24.029Z,1016.96
2017-06-11T05:51:04.962Z,1016.97
2017-06-11T05:51:45.838Z,1017.01
2017-06-11T05:52:26.737Z,1017.03
2017-06-11T05:53:07.638Z,1017.02
2017-06-11T05:53:48.519Z,1017.02
2017-06-11T05:54:29.428Z,1017
2017-06-11T05:55:10.300Z,1016.99
2017-06-11T05:55:51.196Z,1017.03
2017-06-11T05:56:32.080Z,1017.02
2017-06-11T05:57:12.991Z,1017.02
2017-06-11T05:57:53.874Z,1017
2017-06-11T05:58:34.758Z,1016.95
2017-06-11T05:59:15.666Z,1016.97
2017-06-11T05:59:56.550Z,1016.99
2017-06-11T06:00:37.451Z,1017.01
2017-06-11T06:01:18.340Z,1016.97
2017-06-11T06:01:59.226Z,1017.01
2017-06-11T06:02:40.131Z,1016.94
2017-06-11T06:03:21.030Z,1016.96
2017-06-11T06:04:01.911Z,1016.92
2017-06-11T06:04:42.811Z,1016.95
2017-06-11T06:05:23.710Z,1016.92
2017-06-11T06:06:04.602Z,1016.93
2017-06-11T06:06:45.496Z,1016.89
2017-06-11T06:07:26.398Z,1016.95
2017-06-11T06:08:07.280Z,1016.97
2017-06-11T06:08:48.182Z,1016.97
2017-06-11T06:09:29.075Z,1016.94
2017-06-11T06:10:09.964Z,1016.93
2017-06-11T06:10:50.858Z,1016.93
2017-06-11T06:11:31.749Z,1016.9
2017-06-11T06:12:12.636Z,1016.92
2017-06-11T06:12:53.535Z,1016.94
2017-06-11T06:13:34.425Z,1016.91
2017-06-11T06:14:15.330Z,1016.95
2017-06-11T06:14:56.231Z,1016.98
2017-06-11T06:15:37.128Z,1016.97
2017-06-11T06:16:18.023Z,1016.95
2017-06-11T06:16:58.909Z,1016.98
2017-06-11T06:17:39.800Z,1016.98
2017-06-11T06:18:20.695Z,1017.01
2017-06-11T06:19:01.607Z,1016.93
2017-06-11T06:19:42.479Z,1016.93
2017-06-11T06:20:23.375Z,1016.91
2017-06-11T06:21:04.263Z,1016.9
2017-06-11T06:21:45.166Z,1016.87
2017-06-11T06:22:26.064Z,1016.92
2017-06-11T06:23:06.961Z,1016.92
2017-06-11T06:23:47.854Z,1016.88
2017-06-11T06:24:28.758Z,1016.93
2017-06-11T06:25:09.665Z,1016.93
2017-06-11T06:25:50.579Z,1016.9
2017-06-11T06:27:29.037Z,1016.92
2017-06-11T06:28:09.979Z,1016.86
2017-06-11T06:28:50.845Z,1016.86
2017-06-11T06:29:31.762Z,1016.85
2017-06-11T06:30:12.657Z,1016.82
2017-06-11T06:30:53.549Z,1016.86
2017-06-11T06:31:34.453Z,1016.84
2017-06-11T06:32:15.348Z,1016.85
2017-06-11T06:32:56.253Z,1016.86
2017-06-11T06:33:37.163Z,1016.88
2017-06-11T06:34:18.059Z,1016.86
2017-06-11T06:34:58.961Z,1016.87
2017-06-11T06:35:39.849Z,1016.89
2017-06-11T06:36:20.746Z,1016.85
2017-06-11T06:37:01.639Z,1016.86
2017-06-11T06:37:42.534Z,1016.85
2017-06-11T06:38:23.444Z,1016.86
2017-06-11T06:39:04.348Z,1016.84
2017-06-11T06:39:45.244Z,1016.84
2017-06-11T06:40:26.131Z,1016.85
2017-06-11T06:41:07.039Z,1016.85
2017-06-11T06:41:47.939Z,1016.86
2017-06-11T06:42:28.836Z,1016.86
2017-06-11T06:43:09.771Z,1016.88
2017-06-11T06:43:50.675Z,1016.91
2017-06-11T06:44:31.578Z,1016.97
2017-06-11T06:45:12.486Z,1016.94
2017-06-11T06:45:53.395Z,1016.94
2017-06-11T06:46:34.305Z,1016.96
2017-06-11T06:47:15.217Z,1016.92
2017-06-11T06:47:56.120Z,1016.91
2017-06-11T06:48:37.029Z,1016.94
2017-06-11T06:49:17.922Z,1016.95
2017-06-11T06:49:58.827Z,1016.92
2017-06-11T06:50:39.727Z,1016.88
2017-06-11T06:51:20.655Z,1016.96
2017-06-11T06:52:01.573Z,1016.91
2017-06-11T06:52:42.451Z,1016.89
2017-06-11T06:53:23.345Z,1016.89
2017-06-11T06:54:04.253Z,1016.92
2017-06-11T06:54:45.155Z,1016.93
2017-06-11T06:55:26.069Z,1016.92
2017-06-11T06:56:06.970Z,1016.95
2017-06-11T06:56:47.876Z,1016.93
2017-06-11T06:57:28.791Z,1016.94
2017-06-11T06:58:09.737Z,1016.95
2017-06-11T06:59:43.030Z,1016.96
2017-06-11T07:00:23.942Z,1016.97
2017-06-11T07:01:04.853Z,1016.95
2017-06-11T07:01:45.744Z,1016.96
2017-06-11T07:02:26.646Z,1017
2017-06-11T07:03:07.557Z,1017.01
2017-06-11T07:03:48.452Z,1017.04
2017-06-11T07:04:29.350Z,1016.98
2017-06-11T07:05:10.260Z,1016.95
2017-06-11T07:05:51.162Z,1016.98
2017-06-11T07:06:32.081Z,1016.98
2017-06-11T07:07:12.985Z,1016.99
2017-06-11T07:07:53.894Z,1016.99
2017-06-11T07:10:02.996Z,1016.97
2017-06-11T07:10:43.895Z,1016.95
2017-06-11T07:11:24.792Z,1016.95
2017-06-11T07:12:05.700Z,1016.96
2017-06-11T07:12:46.601Z,1016.91
2017-06-11T07:13:27.509Z,1016.95
2017-06-11T07:14:08.423Z,1016.89
2017-06-11T07:14:49.336Z,1016.91
2017-06-11T07:15:30.238Z,1016.9
2017-06-11T07:16:11.153Z,1016.89
2017-06-11T07:16:52.058Z,1016.88
2017-06-11T07:17:32.966Z,1016.87
2017-06-11T07:18:13.872Z,1016.87
2017-06-11T07:18:54.785Z,1016.87
2017-06-11T07:19:35.689Z,1016.9
2017-06-11T07:20:16.585Z,1016.87
2017-06-11T07:20:57.488Z,1016.91
2017-06-11T07:21:38.399Z,1016.86
2017-06-11T07:22:19.313Z,1016.86
2017-06-11T07:23:00.235Z,1016.83
2017-06-11T07:23:41.155Z,1016.83
2017-06-11T07:24:22.062Z,1016.83
2017-06-11T07:25:02.973Z,1016.82
2017-06-11T07:25:43.879Z,1016.81
2017-06-11T07:26:24.787Z,1016.79
2017-06-11T07:27:05.733Z,1016.83
2017-06-11T07:27:46.602Z,1016.84
2017-06-11T07:28:27.519Z,1016.81
2017-06-11T07:29:08.427Z,1016.76
2017-06-11T07:29:49.342Z,1016.73
2017-06-11T07:30:30.243Z,1016.74
2017-06-11T07:31:11.155Z,1016.74
2017-06-11T07:31:52.058Z,1016.76
2017-06-11T07:32:32.958Z,1016.74
2017-06-11T07:34:31.827Z,1016.73
2017-06-11T07:35:12.718Z,1016.74
2017-06-11T07:35:53.614Z,1016.71
2017-06-11T07:36:34.521Z,1016.68
2017-06-11T07:37:15.413Z,1016.66
2017-06-11T07:37:56.274Z,1016.66
2017-06-11T07:38:37.175Z,1016.65
2017-06-11T07:39:18.083Z,1016.64
2017-06-11T07:39:59.002Z,1016.65
2017-06-11T07:40:39.908Z,1016.66
2017-06-11T07:41:20.791Z,1016.64
2017-06-11T07:42:01.703Z,1016.65
2017-06-11T07:42:42.578Z,1016.66
2017-06-11T07:43:23.464Z,1016.65
2017-06-11T07:44:04.370Z,1016.63
2017-06-11T07:44:45.261Z,1016.64
2017-06-11T07:45:26.152Z,1016.65
2017-06-11T07:46:07.055Z,1016.64
2017-06-11T07:46:47.941Z,1016.64
2017-06-11T07:47:28.844Z,1016.61
2017-06-11T07:48:09.774Z,1016.62
2017-06-11T07:49:43.109Z,1016.62
2017-06-11T07:51:41.976Z,1016.57
2017-06-11T07:52:22.913Z,1016.56
2017-06-11T07:53:03.817Z,1016.57
2017-06-11T07:53:44.707Z,1016.61
2017-06-11T07:54:25.643Z,1016.61
2017-06-11T07:55:06.542Z,1016.65
2017-06-11T07:55:47.468Z,1016.65
2017-06-11T07:56:28.361Z,1016.61
2017-06-11T07:57:09.284Z,1016.64
2017-06-11T07:57:50.192Z,1016.61
2017-06-11T07:58:31.088Z,1016.61
2017-06-11T07:59:11.975Z,1016.58
2017-06-11T07:59:52.882Z,1016.6
2017-06-11T08:00:33.797Z,1016.59
2017-06-11T08:01:14.698Z,1016.57
2017-06-11T08:01:55.590Z,1016.59
2017-06-11T08:02:36.484Z,1016.61
2017-06-11T08:03:17.394Z,1016.56
2017-06-11T08:03:58.296Z,1016.58
2017-06-11T08:04:39.204Z,1016.54
2017-06-11T08:05:20.111Z,1016.59
2017-06-11T08:06:01.002Z,1016.62
2017-06-11T08:06:41.901Z,1016.6
2017-06-11T08:07:22.793Z,1016.61
2017-06-11T08:08:03.690Z,1016.57
2017-06-11T08:08:44.575Z,1016.65
2017-06-11T08:09:25.472Z,1016.6
2017-06-11T08:10:06.378Z,1016.6
2017-06-11T08:10:47.276Z,1016.59
2017-06-11T08:11:28.168Z,1016.58
2017-06-11T08:12:09.101Z,1016.57
2017-06-11T08:12:50.008Z,1016.59
2017-06-11T08:13:30.887Z,1016.53
2017-06-11T08:14:11.781Z,1016.56
2017-06-11T08:14:52.680Z,1016.55
2017-06-11T08:15:33.587Z,1016.55
2017-06-11T08:16:14.491Z,1016.55
2017-06-11T08:16:55.396Z,1016.59
2017-06-11T08:17:36.292Z,1016.57
2017-06-11T08:18:17.197Z,1016.58
2017-06-11T08:18:58.123Z,1016.58
2017-06-11T08:19:39.032Z,1016.56
2017-06-11T08:20:19.928Z,1016.58
2017-06-11T08:21:00.835Z,1016.6
2017-06-11T08:21:41.716Z,1016.53
2017-06-11T08:22:22.625Z,1016.53
2017-06-11T08:23:03.523Z,1016.55
2017-06-11T08:23:44.423Z,1016.49
2017-06-11T08:24:25.349Z,1016.46
2017-06-11T08:25:06.264Z,1016.48